Time;durP1;ratioP1;P1;durP2;ratioP2;P2;SDS_P1;SDS_P2;PMS_P1;PMS_P2;Temp;Humidity;BMP_temperature;BMP_pressure;BME280_temperature;BME280_humidity;BME280_pressure;Samples;Min_cycle;Max_cycle;Signal;HPM_P1;HPM_P2
2022/11/22 00:01:14;;;;;;;418.63;117.80;;;;;;;-142.25;100.00;58004.16;5029862;28;20517;-63
2022/11/22 00:03:39;;;;;;;404.37;115.33;;;;;;;-142.25;100.00;58004.16;5031537;28;20443;-62
2022/11/22 00:06:05;;;;;;;394.93;113.70;;;;;;;-142.25;100.00;58004.16;5031222;28;20048;-62
2022/11/22 00:08:32;;;;;;;399.73;114.45;;;;;;;-142.25;100.00;58004.16;5033532;28;20033;-64
2022/11/22 00:10:57;;;;;;;402.92;115.70;;;;;;;-142.25;100.00;58004.16;5028669;28;20045;-62
2022/11/22 00:13:23;;;;;;;401.13;115.43;;;;;;;-142.25;100.00;58004.16;5031817;28;20052;-61
2022/11/22 00:16:03;;;;;;;410.63;117.70;;;;;;;-142.25;100.00;58004.16;5030400;28;20037;-61
2022/11/22 00:18:29;;;;;;;416.55;113.50;;;;;;;-142.25;100.00;58004.16;5032178;28;20052;-61
2022/11/22 00:20:55;;;;;;;409.57;114.27;;;;;;;-142.25;100.00;58004.16;5031037;28;20663;-61
2022/11/22 00:23:22;;;;;;;402.25;113.82;;;;;;;-142.25;100.00;58004.16;5031226;28;20080;-59
2022/11/22 00:25:47;;;;;;;406.67;115.67;;;;;;;-142.25;100.00;58004.16;5028811;28;20646;-62
2022/11/22 00:28:13;;;;;;;413.83;114.77;;;;;;;-142.25;100.00;58004.16;5030419;28;20143;-62
2022/11/22 00:30:38;;;;;;;402.30;117.10;;;;;;;-142.25;100.00;58004.16;5030214;28;20053;-62
2022/11/22 00:33:04;;;;;;;396.43;110.43;;;;;;;-142.25;100.00;58004.16;5047230;28;20051;-60
2022/11/22 00:35:30;;;;;;;397.17;111.90;;;;;;;-142.25;100.00;58004.16;5046769;28;20580;-60
2022/11/22 00:37:55;;;;;;;409.43;116.03;;;;;;;-142.25;100.00;58004.16;5030066;28;20041;-65
2022/11/22 00:40:21;;;;;;;393.83;113.20;;;;;;;-142.25;100.00;58004.16;5029665;28;20493;-61
2022/11/22 00:42:46;;;;;;;405.33;118.40;;;;;;;-142.25;100.00;58004.16;5030834;28;20095;-61
2022/11/22 00:45:12;;;;;;;400.10;117.00;;;;;;;-142.25;100.00;58004.16;5028224;28;20504;-62
2022/11/22 00:47:38;;;;;;;392.20;115.67;;;;;;;-142.25;100.00;58004.16;5031013;28;20124;-61
2022/11/22 00:50:04;;;;;;;393.70;114.97;;;;;;;-142.25;100.00;58004.16;5030387;28;20029;-60
2022/11/22 00:52:29;;;;;;;393.13;112.70;;;;;;;-142.25;100.00;58004.16;5031010;28;20761;-61
2022/11/22 00:54:55;;;;;;;396.60;110.67;;;;;;;-142.25;100.00;58004.16;5031614;28;20128;-62
2022/11/22 00:57:21;;;;;;;405.60;117.27;;;;;;;-142.25;100.00;58004.16;5030346;28;21004;-61
2022/11/22 00:59:46;;;;;;;409.53;120.80;;;;;;;-142.25;100.00;58004.16;5025211;28;20455;-61
2022/11/22 01:02:12;;;;;;;394.77;121.20;;;;;;;-142.25;100.00;58004.16;5021998;28;20053;-63
2022/11/22 01:04:38;;;;;;;405.40;117.30;;;;;;;-142.25;100.00;58004.16;5031535;28;20029;-62
2022/11/22 01:07:03;;;;;;;420.00;120.63;;;;;;;-142.25;100.00;58004.16;5033028;28;20042;-62
2022/11/22 01:09:29;;;;;;;404.57;116.63;;;;;;;-142.25;100.00;58004.16;5031089;28;20041;-62
2022/11/22 01:11:54;;;;;;;414.03;120.77;;;;;;;-142.25;100.00;58004.16;5028940;28;20045;-61
2022/11/22 01:14:20;;;;;;;402.63;120.60;;;;;;;-142.25;100.00;58004.16;5026512;28;20060;-62
2022/11/22 01:16:46;;;;;;;394.83;114.87;;;;;;;-142.25;100.00;58004.16;5031811;28;20388;-63
2022/11/22 01:19:13;;;;;;;393.10;114.85;;;;;;;-142.25;100.00;58004.16;5032558;28;20053;-63
2022/11/22 01:21:39;;;;;;;398.42;116.05;;;;;;;-142.25;100.00;58004.16;5033171;28;20227;-62
2022/11/22 01:24:04;;;;;;;404.60;114.90;;;;;;;-142.25;100.00;58004.16;5031528;28;20051;-61
2022/11/22 01:26:32;;;;;;;398.67;117.20;;;;;;;-142.25;100.00;58004.16;5031038;28;20045;-62
2022/11/22 01:28:57;;;;;;;407.75;116.93;;;;;;;-142.25;100.00;58004.16;5030852;28;20128;-62
2022/11/22 01:31:23;;;;;;;403.30;113.77;;;;;;;-142.25;100.00;58004.16;5029609;28;20040;-62
2022/11/22 01:33:48;;;;;;;397.20;115.67;;;;;;;-142.25;100.00;58004.16;5032203;28;20060;-61
2022/11/22 01:36:14;;;;;;;398.17;112.80;;;;;;;-142.25;100.00;58004.16;5030493;28;20606;-61
2022/11/22 01:38:39;;;;;;;396.53;110.93;;;;;;;-142.25;100.00;58004.16;5030450;28;20032;-62
2022/11/22 01:41:05;;;;;;;399.33;117.17;;;;;;;-142.25;100.00;58004.16;5027239;28;20061;-61
2022/11/22 01:43:31;;;;;;;403.23;118.90;;;;;;;-142.25;100.00;58004.16;5024310;28;20033;-62
2022/11/22 01:46:01;;;;;;;397.53;114.67;;;;;;;-142.25;100.00;58004.16;5026910;28;20399;-61
2022/11/22 01:48:44;;;;;;;399.73;119.35;;;;;;;-142.25;100.00;58004.16;5021809;28;20052;-62
2022/11/22 01:51:17;;;;;;;394.05;112.65;;;;;;;-142.25;100.00;58004.16;5027920;28;20049;-62
2022/11/22 01:53:44;;;;;;;396.20;112.63;;;;;;;-142.25;100.00;58004.16;5030688;28;20072;-63
2022/11/22 01:56:14;;;;;;;395.58;112.75;;;;;;;-142.25;100.00;58004.16;5032082;28;20102;-62
2022/11/22 01:58:41;;;;;;;399.83;113.75;;;;;;;-142.25;100.00;58004.16;5028821;28;20682;-62
2022/11/22 02:01:07;;;;;;;400.63;115.72;;;;;;;-142.25;100.00;58004.16;5028149;28;20510;-62
2022/11/22 02:03:35;;;;;;;396.80;117.63;;;;;;;-142.25;100.00;58004.16;5023042;28;20045;-62
2022/11/22 02:06:02;;;;;;;397.85;117.55;;;;;;;-142.25;100.00;58004.16;5022668;28;20056;-61
2022/11/22 02:08:36;;;;;;;397.05;115.63;;;;;;;-142.25;100.00;58004.16;5031702;28;20045;-68
2022/11/22 02:11:03;;;;;;;396.65;117.28;;;;;;;-142.25;100.00;58004.16;5033379;28;20065;-67
2022/11/22 02:13:33;;;;;;;397.55;115.13;;;;;;;-142.25;100.00;58004.16;5029822;28;20053;-64
2022/11/22 02:15:59;;;;;;;398.33;117.45;;;;;;;-142.25;100.00;58004.16;5031966;28;20099;-65
2022/11/22 02:18:26;;;;;;;397.48;115.85;;;;;;;-142.25;100.00;58004.16;5031606;28;20353;-61
2022/11/22 02:20:53;;;;;;;397.77;117.38;;;;;;;-142.25;100.00;58004.16;5032125;28;20045;-61
2022/11/22 02:23:37;;;;;;;399.38;120.35;;;;;;;-142.25;100.00;58004.16;5029672;28;20033;-62
2022/11/22 02:26:03;;;;;;;398.75;119.13;;;;;;;-142.25;100.00;58004.16;5027594;28;20041;-61
2022/11/22 02:28:33;;;;;;;401.20;118.60;;;;;;;-142.25;100.00;58004.16;5029229;28;20123;-61
2022/11/22 02:30:59;;;;;;;400.48;120.63;;;;;;;-142.25;100.00;58004.16;5027261;28;20061;-61
2022/11/22 02:33:24;;;;;;;399.80;119.73;;;;;;;-142.25;100.00;58004.16;5028380;28;20496;-61
2022/11/22 02:35:50;;;;;;;403.23;118.33;;;;;;;-142.25;100.00;58004.16;5028611;28;20079;-61
2022/11/22 02:38:25;;;;;;;399.08;122.88;;;;;;;-142.25;100.00;58004.16;5028732;28;20041;-62
2022/11/22 02:40:58;;;;;;;398.38;120.10;;;;;;;-142.25;100.00;58004.16;5030326;28;20041;-61
2022/11/22 02:43:28;;;;;;;400.63;121.47;;;;;;;-142.25;100.00;58004.16;5029806;28;20123;-62
2022/11/22 02:45:54;;;;;;;399.33;122.43;;;;;;;-142.25;100.00;58004.16;5026949;28;20047;-61
2022/11/22 02:48:19;;;;;;;399.43;123.83;;;;;;;-142.25;100.00;58004.16;5027663;28;20651;-61
2022/11/22 02:50:45;;;;;;;401.00;123.53;;;;;;;-142.25;100.00;58004.16;5027474;28;20156;-60
2022/11/22 02:53:12;;;;;;;400.30;122.93;;;;;;;-142.25;100.00;58004.16;5030133;28;20053;-62
2022/11/22 02:55:38;;;;;;;400.40;120.70;;;;;;;-142.25;100.00;58004.16;5032114;28;20045;-60
2022/11/22 02:58:07;;;;;;;399.23;121.70;;;;;;;-142.25;100.00;58004.16;5033119;28;20106;-61
2022/11/22 03:00:35;;;;;;;400.30;121.00;;;;;;;-142.25;100.00;58004.16;5031302;28;20279;-60
2022/11/22 03:03:00;;;;;;;404.17;122.07;;;;;;;-142.25;100.00;58004.16;5034646;28;20778;-60
2022/11/22 03:05:26;;;;;;;401.33;122.07;;;;;;;-142.25;100.00;58004.16;5033789;28;20648;-62
2022/11/22 03:07:52;;;;;;;401.07;121.80;;;;;;;-142.25;100.00;58004.16;5034267;28;20138;-61
2022/11/22 03:10:17;;;;;;;402.00;122.83;;;;;;;-142.25;100.00;58004.16;5033563;28;20563;-59
2022/11/22 03:12:43;;;;;;;401.13;124.20;;;;;;;-142.25;100.00;58004.16;5032368;28;20049;-61
2022/11/22 03:15:09;;;;;;;404.90;122.33;;;;;;;-142.25;100.00;58004.16;5034103;28;20124;-61
2022/11/22 03:17:34;;;;;;;402.73;119.93;;;;;;;-142.25;100.00;58004.16;5032084;28;20045;-64
2022/11/22 03:20:00;;;;;;;406.40;128.87;;;;;;;-142.25;100.00;58004.16;5032510;28;20041;-64
2022/11/22 03:22:26;;;;;;;401.27;122.70;;;;;;;-142.25;100.00;58004.16;5034216;28;20136;-64
2022/11/22 03:24:51;;;;;;;399.57;121.07;;;;;;;-142.25;100.00;58004.16;5035738;28;20099;-65
2022/11/22 03:27:17;;;;;;;397.03;121.13;;;;;;;-142.25;100.00;58004.16;5032734;28;20087;-65
2022/11/22 03:29:44;;;;;;;400.07;119.90;;;;;;;-142.25;100.00;58004.16;5035237;28;20440;-64
2022/11/22 03:32:10;;;;;;;401.87;122.37;;;;;;;-142.25;100.00;58004.16;5034393;28;20379;-64
2022/11/22 03:34:35;;;;;;;399.63;124.57;;;;;;;-142.25;100.00;58004.16;5034042;28;20076;-63
2022/11/22 03:37:01;;;;;;;404.47;129.27;;;;;;;-142.25;100.00;58004.16;5028096;28;20144;-65
2022/11/22 03:39:27;;;;;;;397.23;120.37;;;;;;;-142.25;100.00;58004.16;5032505;28;20132;-63
2022/11/22 03:41:55;;;;;;;397.97;121.50;;;;;;;-142.25;100.00;58004.16;5032906;28;20096;-64
2022/11/22 03:44:21;;;;;;;402.53;127.17;;;;;;;-142.25;100.00;58004.16;5034218;28;20044;-66
2022/11/22 03:46:47;;;;;;;403.43;125.23;;;;;;;-142.25;100.00;58004.16;5025473;28;20284;-65
2022/11/22 03:49:13;;;;;;;403.90;128.87;;;;;;;-142.25;100.00;58004.16;5031541;28;20357;-67
2022/11/22 03:51:38;;;;;;;400.40;124.40;;;;;;;-142.25;100.00;58004.16;5031007;28;20409;-65
2022/11/22 03:54:04;;;;;;;408.13;126.60;;;;;;;-142.25;100.00;58004.16;5032486;28;20045;-65
2022/11/22 03:56:30;;;;;;;401.47;126.43;;;;;;;-142.25;100.00;58004.16;5033893;28;20159;-65
2022/11/22 03:58:55;;;;;;;402.83;125.00;;;;;;;-142.25;100.00;58004.16;5031786;28;20634;-65
2022/11/22 04:01:21;;;;;;;398.20;123.40;;;;;;;-142.25;100.00;58004.16;5033286;28;20056;-64
2022/11/22 04:03:47;;;;;;;401.47;129.87;;;;;;;-142.25;100.00;58004.16;5031300;28;20489;-65
2022/11/22 04:06:12;;;;;;;401.30;129.30;;;;;;;-142.25;100.00;58004.16;5028346;28;20599;-65
2022/11/22 04:08:38;;;;;;;403.73;130.50;;;;;;;-142.25;100.00;58004.16;5024371;28;20045;-65
2022/11/22 04:11:03;;;;;;;399.93;129.63;;;;;;;-142.25;100.00;58004.16;5027945;28;20459;-67
2022/11/22 04:16:13;;;;;;;402.77;124.87;;;;;;;-142.25;100.00;58004.16;5033748;28;20291;-64
2022/11/22 04:18:39;;;;;;;399.00;124.57;;;;;;;-142.25;100.00;58004.16;5032654;28;20284;-65
2022/11/22 04:25:12;;;;;;;397.47;127.30;;;;;;;-142.25;100.00;58004.16;5032807;28;20067;-63
2022/11/22 04:26:34;;;;;;;;;;;;;;;-142.25;100.00;58004.16;5032677;28;20287;-60
2022/11/22 04:29:00;;;;;;;401.47;123.23;;;;;;;-142.25;100.00;58004.16;5034172;28;19927;-62
2022/11/22 04:34:10;;;;;;;400.07;125.90;;;;;;;-142.25;100.00;58004.16;5033881;28;20128;-61
2022/11/22 04:36:35;;;;;;;402.87;129.53;;;;;;;-142.25;100.00;58004.16;5046916;28;20294;-57
2022/11/22 04:39:01;;;;;;;397.37;127.93;;;;;;;-142.25;100.00;58004.16;5031548;28;20037;-62
2022/11/22 04:41:26;;;;;;;397.30;130.77;;;;;;;-142.25;100.00;58004.16;5031565;28;20040;-61
2022/11/22 04:46:37;;;;;;;397.33;128.73;;;;;;;-142.25;100.00;58004.16;5028440;28;20632;-62
2022/11/22 04:49:02;;;;;;;400.50;146.63;;;;;;;-142.25;100.00;58004.16;5032368;28;20740;-62
2022/11/22 04:54:12;;;;;;;399.30;133.23;;;;;;;-142.25;100.00;58004.16;5031614;28;20061;-61
2022/11/22 04:56:38;;;;;;;397.27;131.27;;;;;;;-142.25;100.00;58004.16;5030942;28;20292;-59
2022/11/22 04:59:04;;;;;;;396.73;128.17;;;;;;;-142.25;100.00;58004.16;5033576;28;20049;-61
2022/11/22 05:01:29;;;;;;;395.77;128.30;;;;;;;-142.25;100.00;58004.16;5029654;28;20299;-62
2022/11/22 05:03:55;;;;;;;400.40;133.20;;;;;;;-142.25;100.00;58004.16;5031710;28;20099;-60
2022/11/22 05:06:21;;;;;;;400.33;132.33;;;;;;;-142.25;100.00;58004.16;5032758;28;20052;-61
2022/11/22 05:08:46;;;;;;;399.60;140.67;;;;;;;-142.25;100.00;58004.16;5031024;28;20045;-62
2022/11/22 05:11:12;;;;;;;402.47;140.17;;;;;;;-142.25;100.00;58004.16;5032338;28;20065;-62
2022/11/22 05:13:40;;;;;;;397.30;128.43;;;;;;;-142.25;100.00;58004.16;5030497;28;20029;-63
2022/11/22 05:16:11;;;;;;;399.30;136.37;;;;;;;-142.25;100.00;58004.16;5032355;28;20121;-62
2022/11/22 05:18:37;;;;;;;401.33;132.43;;;;;;;-142.25;100.00;58004.16;5026403;28;20374;-60
2022/11/22 05:21:07;;;;;;;399.37;129.43;;;;;;;-142.25;100.00;58004.16;5025655;28;20761;-61
2022/11/22 05:26:18;;;;;;;399.77;128.97;;;;;;;-142.25;100.00;58004.16;5029515;28;20280;-61
2022/11/22 05:28:43;;;;;;;399.17;129.90;;;;;;;-142.25;100.00;58004.16;5027971;28;20333;-63
2022/11/22 05:31:12;;;;;;;400.20;130.77;;;;;;;-142.25;100.00;58004.16;5030212;28;20211;-62
2022/11/22 05:33:40;;;;;;;404.97;136.03;;;;;;;-142.25;100.00;58004.16;5030636;28;20037;-61
2022/11/22 05:36:07;;;;;;;402.87;131.13;;;;;;;-142.25;100.00;58004.16;5031732;28;20295;-64
2022/11/22 05:38:34;;;;;;;399.40;127.30;;;;;;;-142.25;100.00;58004.16;5028698;28;20288;-60
2022/11/22 05:41:01;;;;;;;397.97;132.37;;;;;;;-142.25;100.00;58004.16;5032416;28;20288;-61
2022/11/22 05:43:27;;;;;;;396.13;125.93;;;;;;;-142.25;100.00;58004.16;5029266;28;20303;-62
2022/11/22 05:45:53;;;;;;;400.13;134.37;;;;;;;-142.25;100.00;58004.16;5031249;28;20279;-60
2022/11/22 05:48:18;;;;;;;396.00;126.80;;;;;;;-142.25;100.00;58004.16;5029670;28;20152;-61
2022/11/22 05:50:44;;;;;;;396.03;124.83;;;;;;;-142.25;100.00;58004.16;5031483;28;20388;-60
2022/11/22 05:53:10;;;;;;;396.70;126.00;;;;;;;-142.25;100.00;58004.16;5030755;28;20033;-60
2022/11/22 05:55:35;;;;;;;395.80;126.47;;;;;;;-142.25;100.00;58004.16;5030195;28;20091;-62
2022/11/22 05:58:01;;;;;;;399.50;132.27;;;;;;;-142.25;100.00;58004.16;5030465;28;20481;-61
2022/11/22 06:00:28;;;;;;;399.27;131.00;;;;;;;-142.25;100.00;58004.16;5030379;28;20465;-61
2022/11/22 06:03:02;;;;;;;400.40;131.87;;;;;;;-142.25;100.00;58004.16;5027262;28;20511;-60
2022/11/22 06:05:28;;;;;;;401.63;131.73;;;;;;;-142.25;100.00;58004.16;5024316;28;21020;-61
2022/11/22 06:08:01;;;;;;;396.10;126.33;;;;;;;-142.25;100.00;58004.16;5029638;28;20285;-61
2022/11/22 06:10:27;;;;;;;406.33;135.05;;;;;;;-142.25;100.00;58004.16;5023688;28;20315;-61
2022/11/22 06:12:53;;;;;;;401.73;131.60;;;;;;;-142.25;100.00;58004.16;5022663;28;20140;-61
2022/11/22 06:15:20;;;;;;;405.45;130.75;;;;;;;-142.25;100.00;58004.16;5027206;28;20079;-61
2022/11/22 06:17:45;;;;;;;400.23;129.17;;;;;;;-142.25;100.00;58004.16;5029709;28;20038;-61
2022/11/22 06:20:11;;;;;;;401.93;133.97;;;;;;;-142.25;100.00;58004.16;5024369;28;20487;-61
2022/11/22 06:22:37;;;;;;;401.30;132.67;;;;;;;-142.25;100.00;58004.16;5023785;28;20049;-60
2022/11/22 06:25:03;;;;;;;401.50;129.73;;;;;;;-142.25;100.00;58004.16;5028145;28;20041;-63
2022/11/22 06:27:29;;;;;;;403.10;127.33;;;;;;;-142.25;100.00;58004.16;5029139;28;20044;-61
2022/11/22 06:29:54;;;;;;;398.13;126.43;;;;;;;-142.25;100.00;58004.16;5007604;28;20052;-60
2022/11/22 06:32:21;;;;;;;401.47;128.70;;;;;;;-142.25;100.00;58004.16;5030445;28;20474;-61
2022/11/22 06:34:47;;;;;;;397.73;125.57;;;;;;;-142.25;100.00;58004.16;5029078;28;20164;-61
2022/11/22 06:37:15;;;;;;;398.00;124.20;;;;;;;-142.25;100.00;58004.16;5029134;28;20355;-63
2022/11/22 06:39:41;;;;;;;397.70;124.73;;;;;;;-142.25;100.00;58004.16;5028938;28;20037;-61
2022/11/22 06:42:07;;;;;;;395.20;123.90;;;;;;;-142.25;100.00;58004.16;5030630;28;20735;-61
2022/11/22 06:44:33;;;;;;;401.73;129.77;;;;;;;-142.25;100.00;58004.16;5028102;28;20037;-63
2022/11/22 06:46:59;;;;;;;401.30;126.15;;;;;;;-142.25;100.00;58004.16;5029687;28;20049;-62
2022/11/22 06:49:24;;;;;;;401.63;128.47;;;;;;;-142.25;100.00;58004.16;5029845;28;20041;-61
2022/11/22 06:51:50;;;;;;;401.97;125.97;;;;;;;-142.25;100.00;58004.16;5030723;28;20280;-59
2022/11/22 06:54:16;;;;;;;401.87;130.23;;;;;;;-142.25;100.00;58004.16;5044660;28;20037;-63
2022/11/22 06:56:43;;;;;;;399.47;123.57;;;;;;;-142.25;100.00;58004.16;5029619;28;20049;-61
2022/11/22 06:59:09;;;;;;;398.77;124.30;;;;;;;-142.25;100.00;58004.16;5030146;28;20825;-63
2022/11/22 07:01:36;;;;;;;399.40;129.60;;;;;;;-142.25;100.00;58004.16;5026884;28;20073;-61
2022/11/22 07:04:02;;;;;;;400.40;129.27;;;;;;;-142.25;100.00;58004.16;5028238;28;20300;-64
2022/11/22 07:06:37;;;;;;;398.47;125.17;;;;;;;-142.25;100.00;58004.16;5029373;28;20291;-62
2022/11/22 07:09:06;;;;;;;401.40;127.70;;;;;;;-142.25;100.00;58004.16;5029625;28;20850;-63
2022/11/22 07:11:32;;;;;;;401.03;127.70;;;;;;;-142.25;100.00;58004.16;5028403;28;20320;-63
2022/11/22 07:14:00;;;;;;;401.67;129.53;;;;;;;-142.25;100.00;58004.16;5029352;28;20326;-62
2022/11/22 07:16:25;;;;;;;400.53;133.70;;;;;;;-142.25;100.00;58004.16;5029245;28;20929;-63
2022/11/22 07:18:51;;;;;;;399.40;127.43;;;;;;;-142.25;100.00;58004.16;5027237;28;20347;-62
2022/11/22 07:21:22;;;;;;;403.47;133.20;;;;;;;-142.25;100.00;58004.16;5024826;28;20291;-62
2022/11/22 07:23:50;;;;;;;405.90;134.20;;;;;;;-142.25;100.00;58004.16;5022106;28;20526;-62
2022/11/22 07:26:18;;;;;;;399.10;130.53;;;;;;;-142.25;100.00;58004.16;5028829;28;20292;-62
2022/11/22 07:28:44;;;;;;;403.30;131.67;;;;;;;-142.25;100.00;58004.16;5030318;28;20287;-62
2022/11/22 07:31:11;;;;;;;396.77;124.70;;;;;;;-142.25;100.00;58004.16;5027923;28;20288;-63
2022/11/22 07:33:37;;;;;;;402.23;130.67;;;;;;;-142.25;100.00;58004.16;5045071;28;20620;-62
2022/11/22 07:36:04;;;;;;;401.30;129.77;;;;;;;-142.25;100.00;58004.16;5029224;28;20298;-62
2022/11/22 07:38:30;;;;;;;398.63;127.27;;;;;;;-142.25;100.00;58004.16;5033002;28;20619;-63
2022/11/22 07:40:55;;;;;;;400.50;127.73;;;;;;;-142.25;100.00;58004.16;5029925;28;20360;-62
2022/11/22 07:43:21;;;;;;;397.67;127.20;;;;;;;-142.25;100.00;58004.16;5032036;28;20029;-62
2022/11/22 07:45:48;;;;;;;403.93;133.00;;;;;;;-142.25;100.00;58004.16;5047109;28;20055;-61
2022/11/22 07:48:13;;;;;;;402.73;131.10;;;;;;;-142.25;100.00;58004.16;5032994;28;20517;-62
2022/11/22 07:50:40;;;;;;;400.10;127.73;;;;;;;-142.25;100.00;58004.16;5033673;28;20053;-62
2022/11/22 07:53:07;;;;;;;401.47;136.00;;;;;;;-142.25;100.00;58004.16;5027606;28;20038;-61
2022/11/22 07:55:33;;;;;;;401.40;131.57;;;;;;;-142.25;100.00;58004.16;5027233;28;20290;-61
2022/11/22 07:58:00;;;;;;;403.67;138.33;;;;;;;-142.25;100.00;58004.16;5030188;28;20277;-61
2022/11/22 08:00:26;;;;;;;400.03;133.67;;;;;;;-142.25;100.00;58004.16;5028672;28;20494;-60
2022/11/22 08:02:51;;;;;;;399.70;128.07;;;;;;;-142.25;100.00;58004.16;5028402;28;20300;-59
2022/11/22 08:05:18;;;;;;;400.97;129.80;;;;;;;-142.25;100.00;58004.16;5031386;28;20294;-62
2022/11/22 08:07:51;;;;;;;401.43;128.57;;;;;;;-142.25;100.00;58004.16;5025969;28;20038;-62
2022/11/22 08:10:17;;;;;;;405.03;133.83;;;;;;;-142.25;100.00;58004.16;5029988;28;20694;-60
2022/11/22 08:12:43;;;;;;;405.10;139.97;;;;;;;-142.25;100.00;58004.16;5016761;28;20588;-61
2022/11/22 08:15:11;;;;;;;401.97;129.63;;;;;;;-142.25;100.00;58004.16;5008905;28;20280;-62
2022/11/22 08:17:37;;;;;;;406.50;134.50;;;;;;;-142.25;100.00;58004.16;5028841;28;20350;-61
2022/11/22 08:20:05;;;;;;;403.33;134.40;;;;;;;-142.25;100.00;58004.16;5026169;28;20331;-62
2022/11/22 08:22:31;;;;;;;401.60;133.83;;;;;;;-142.25;100.00;58004.16;5025485;28;20288;-61
2022/11/22 08:24:56;;;;;;;403.37;131.30;;;;;;;-142.25;100.00;58004.16;5029830;28;20295;-62
2022/11/22 08:27:23;;;;;;;403.53;130.17;;;;;;;-142.25;100.00;58004.16;5046450;28;20053;-61
2022/11/22 08:29:49;;;;;;;403.80;137.60;;;;;;;-142.25;100.00;58004.16;5031198;28;20045;-63
2022/11/22 08:32:15;;;;;;;399.60;129.60;;;;;;;-142.25;100.00;58004.16;5007320;28;20280;-61
2022/11/22 08:34:40;;;;;;;401.97;132.67;;;;;;;-142.25;100.00;58004.16;5031580;28;20046;-60
2022/11/22 08:37:06;;;;;;;400.20;133.60;;;;;;;-142.25;100.00;58004.16;5029822;28;20556;-62
2022/11/22 08:39:32;;;;;;;401.50;136.23;;;;;;;-142.25;100.00;58004.16;5030681;28;20094;-62
2022/11/22 08:41:57;;;;;;;404.17;137.93;;;;;;;-142.25;100.00;58004.16;5018678;28;20272;-62
2022/11/22 08:44:23;;;;;;;402.03;137.43;;;;;;;-142.25;100.00;58004.16;5026578;28;20102;-62
2022/11/22 08:46:48;;;;;;;406.50;135.43;;;;;;;-142.25;100.00;58004.16;5028650;28;20049;-62
2022/11/22 08:49:14;;;;;;;400.60;130.23;;;;;;;-142.25;100.00;58004.16;5032169;28;20083;-63
2022/11/22 08:51:44;;;;;;;403.50;133.93;;;;;;;-142.25;100.00;58004.16;5029437;28;20053;-62
2022/11/22 08:54:13;;;;;;;409.43;131.00;;;;;;;-142.25;100.00;58004.16;5029384;28;20075;-62
2022/11/22 08:56:39;;;;;;;401.77;128.87;;;;;;;-142.25;100.00;58004.16;5028712;28;20319;-61
2022/11/22 08:59:05;;;;;;;403.37;129.40;;;;;;;-142.25;100.00;58004.16;5030596;28;20905;-63
2022/11/22 09:01:31;;;;;;;407.83;153.33;;;;;;;-142.25;100.00;58004.16;5031240;28;20044;-62
2022/11/22 09:03:56;;;;;;;407.77;160.33;;;;;;;-142.25;100.00;58004.16;5031988;28;20040;-61
2022/11/22 09:06:22;;;;;;;409.03;152.80;;;;;;;-142.25;100.00;58004.16;5030799;28;20049;-61
2022/11/22 09:08:48;;;;;;;403.13;129.70;;;;;;;-142.25;100.00;58004.16;5031561;28;20099;-61
2022/11/22 09:11:15;;;;;;;409.03;154.47;;;;;;;-142.25;100.00;58004.16;5029295;28;20393;-61
2022/11/22 09:13:41;;;;;;;402.70;141.93;;;;;;;-142.25;100.00;58004.16;5026921;28;20048;-62
2022/11/22 09:16:11;;;;;;;400.20;127.90;;;;;;;-142.25;100.00;58004.16;5025647;28;20399;-62
2022/11/22 09:18:37;;;;;;;401.53;127.60;;;;;;;-142.25;100.00;58004.16;5029797;28;20049;-61
2022/11/22 09:21:09;;;;;;;401.27;133.00;;;;;;;-142.25;100.00;58004.16;5045568;28;20283;-63
2022/11/22 09:23:36;;;;;;;400.30;130.23;;;;;;;-142.25;100.00;58004.16;5040860;28;20431;-62
2022/11/22 09:26:07;;;;;;;402.63;131.00;;;;;;;-142.25;100.00;58004.16;5030285;28;20294;-62
2022/11/22 09:28:34;;;;;;;403.30;131.63;;;;;;;-142.25;100.00;58004.16;5028071;28;20337;-62
2022/11/22 09:31:05;;;;;;;406.27;139.50;;;;;;;-142.25;100.00;58004.16;5023123;28;20291;-62
2022/11/22 09:33:33;;;;;;;406.83;138.20;;;;;;;-142.25;100.00;58004.16;5023119;28;20283;-62
2022/11/22 09:36:03;;;;;;;406.63;132.67;;;;;;;-142.25;100.00;58004.16;5022179;28;20552;-62
2022/11/22 09:38:30;;;;;;;406.00;139.53;;;;;;;-142.25;100.00;58004.16;5008398;28;20311;-62
2022/11/22 09:40:57;;;;;;;404.37;133.37;;;;;;;-142.25;100.00;58004.16;5009896;28;20289;-60
2022/11/22 09:43:32;;;;;;;403.00;132.07;;;;;;;-142.25;100.00;58004.16;5010122;28;20324;-60
2022/11/22 09:46:04;;;;;;;404.50;133.68;;;;;;;-142.25;100.00;58004.16;5008476;28;20557;-63
2022/11/22 09:49:07;;;;;;;406.43;134.70;;;;;;;-142.25;100.00;58004.16;5009510;28;20076;-60
2022/11/22 09:51:38;;;;;;;405.30;131.00;;;;;;;-142.25;100.00;58004.16;5009165;28;20787;-61
2022/11/22 09:54:13;;;;;;;408.27;131.47;;;;;;;-142.25;100.00;58004.16;5012547;28;20280;-61
2022/11/22 09:56:40;;;;;;;407.33;133.27;;;;;;;-142.25;100.00;58004.16;5009291;28;20284;-61
2022/11/22 09:59:19;;;;;;;417.00;138.87;;;;;;;-142.25;100.00;58004.16;5010627;28;20292;-61
2022/11/22 10:01:51;;;;;;;431.43;148.00;;;;;;;-142.25;100.00;58004.16;5010087;28;20288;-63
2022/11/22 10:04:23;;;;;;;424.57;143.47;;;;;;;-142.25;100.00;58004.16;5010058;28;21238;-63
2022/11/22 10:06:59;;;;;;;413.20;139.13;;;;;;;-142.25;100.00;58004.16;5011005;28;20281;-60
2022/11/22 10:09:48;;;;;;;407.30;135.90;;;;;;;-142.25;100.00;58004.16;5010856;28;20273;-61
2022/11/22 10:12:51;;;;;;;411.77;143.87;;;;;;;-142.25;100.00;58004.16;5009911;28;20962;-61
2022/11/22 10:15:36;;;;;;;411.00;139.57;;;;;;;-142.25;100.00;58004.16;5004625;28;20289;-60
2022/11/22 10:18:24;;;;;;;412.70;144.90;;;;;;;-142.25;100.00;58004.16;5007361;28;20284;-59
2022/11/22 10:20:51;;;;;;;411.97;149.10;;;;;;;-142.25;100.00;58004.16;5006025;28;20292;-61
2022/11/22 10:23:21;;;;;;;411.30;143.33;;;;;;;-142.25;100.00;58004.16;5006902;28;20308;-60
2022/11/22 10:25:55;;;;;;;410.40;143.47;;;;;;;-142.25;100.00;58004.16;5011219;28;20288;-61
2022/11/22 10:28:34;;;;;;;412.40;144.52;;;;;;;-142.25;100.00;58004.16;5008427;28;20440;-64
2022/11/22 10:31:07;;;;;;;409.10;143.70;;;;;;;-142.25;100.00;58004.16;5010094;28;20034;-64
2022/11/22 10:33:47;;;;;;;408.70;145.90;;;;;;;-142.25;100.00;58004.16;5009521;28;20330;-61
2022/11/22 10:36:21;;;;;;;418.13;161.67;;;;;;;-142.25;100.00;58004.16;5025244;28;20318;-65
2022/11/22 10:38:57;;;;;;;411.50;160.68;;;;;;;-142.25;100.00;58004.16;5011327;28;20337;-62
2022/11/22 10:41:46;;;;;;;413.73;142.87;;;;;;;-142.25;100.00;58004.16;5007436;28;20542;-59
2022/11/22 10:44:32;;;;;;;406.03;139.73;;;;;;;-142.25;100.00;58004.16;5009540;28;20038;-62
2022/11/22 10:47:32;;;;;;;413.67;139.52;;;;;;;-142.25;100.00;58004.16;5012290;28;20374;-62
2022/11/22 10:50:26;;;;;;;408.20;142.90;;;;;;;-142.25;100.00;58004.16;4985166;28;20050;-61
2022/11/22 10:53:05;;;;;;;408.47;138.53;;;;;;;-142.25;100.00;58004.16;5009511;28;20285;-62
2022/11/22 10:55:37;;;;;;;408.03;140.27;;;;;;;-142.25;100.00;58004.16;5025068;28;20304;-60
2022/11/22 10:58:21;;;;;;;411.30;142.37;;;;;;;-142.25;100.00;58004.16;5009849;28;20282;-60
2022/11/22 11:00:55;;;;;;;412.33;144.70;;;;;;;-142.25;100.00;58004.16;5008517;28;20264;-60